Time;durP1;ratioP1;P1;durP2;ratioP2;P2;SDS_P1;SDS_P2;PMS_P1;PMS_P2;Temp;Humidity;BMP_temperature;BMP_pressure;BME280_temperature;BME280_humidity;BME280_pressure;Samples;Min_cycle;Max_cycle;Signal;HPM_P1;HPM_P2
2022/01/30 00:00:10;;;;;;;3.67;1.90;;;5.80;99.70;;;;;;5088316;28;20447;-67
2022/01/30 00:02:38;;;;;;;3.20;2.17;;;5.80;99.70;;;;;;5088664;28;20465;-66
2022/01/30 00:05:06;;;;;;;3.67;1.80;;;5.80;99.70;;;;;;5088680;28;20507;-66
2022/01/30 00:07:34;;;;;;;3.33;1.70;;;5.80;99.70;;;;;;5088539;28;20895;-67
2022/01/30 00:10:01;;;;;;;3.30;1.73;;;5.80;99.70;;;;;;5088016;28;20446;-67
2022/01/30 00:12:38;;;;;;;3.17;1.60;;;5.70;99.70;;;;;;5088405;28;20493;-67
2022/01/30 00:15:05;;;;;;;3.30;1.80;;;5.80;99.70;;;;;;5088499;28;20491;-66
2022/01/30 00:17:38;;;;;;;3.73;1.70;;;5.80;99.70;;;;;;5088297;28;20492;-67
2022/01/30 00:20:13;;;;;;;2.53;1.50;;;5.80;99.70;;;;;;5087995;28;20826;-67
2022/01/30 00:22:47;;;;;;;2.73;1.50;;;5.90;99.70;;;;;;5088259;28;20470;-67
2022/01/30 00:25:19;;;;;;;3.03;1.43;;;5.80;99.70;;;;;;5088250;28;20533;-64
2022/01/30 00:27:50;;;;;;;3.63;1.70;;;5.90;99.70;;;;;;5088008;28;20783;-64
2022/01/30 00:30:18;;;;;;;2.77;1.50;;;5.90;99.70;;;;;;5088037;28;20525;-65
2022/01/30 00:32:45;;;;;;;3.83;1.90;;;5.90;99.70;;;;;;5088021;28;20531;-64
2022/01/30 00:35:14;;;;;;;2.93;1.60;;;5.90;99.70;;;;;;5088138;28;20521;-64
2022/01/30 00:37:43;;;;;;;3.60;1.70;;;6.00;99.70;;;;;;5087792;28;20441;-64
2022/01/30 00:40:10;;;;;;;3.40;1.73;;;6.10;99.70;;;;;;5087246;28;20438;-64
2022/01/30 00:42:37;;;;;;;2.70;1.60;;;6.10;99.70;;;;;;5087862;28;20458;-64
2022/01/30 00:45:05;;;;;;;2.73;1.53;;;6.10;99.70;;;;;;5087867;28;20430;-64
2022/01/30 00:47:31;;;;;;;3.53;1.80;;;6.10;99.70;;;;;;5087619;28;20482;-65
2022/01/30 00:49:58;;;;;;;3.03;1.70;;;6.10;99.70;;;;;;5087129;28;20453;-67
2022/01/30 00:52:26;;;;;;;3.87;1.70;;;6.20;99.70;;;;;;5087230;28;20851;-67
2022/01/30 00:54:53;;;;;;;6.20;1.80;;;6.20;99.70;;;;;;5087614;28;20479;-67
2022/01/30 00:57:19;;;;;;;3.53;1.80;;;6.20;99.70;;;;;;5083476;28;20442;-64
2022/01/30 00:59:48;;;;;;;3.20;1.80;;;6.20;99.70;;;;;;5073594;28;20438;-64
2022/01/30 01:02:15;;;;;;;3.03;1.70;;;6.20;99.70;;;;;;5073886;28;20470;-64
2022/01/30 01:04:42;;;;;;;3.00;1.73;;;6.20;99.70;;;;;;5074137;28;20576;-64
2022/01/30 01:07:14;;;;;;;2.83;1.53;;;6.20;99.70;;;;;;5073938;28;20485;-65
2022/01/30 01:09:50;;;;;;;2.87;1.70;;;6.20;99.70;;;;;;5073835;28;20454;-64
2022/01/30 01:12:45;;;;;;;2.70;1.67;;;6.30;99.70;;;;;;5070108;28;20973;-65
2022/01/30 01:23:38;;;;;;;4.83;1.87;;;6.20;99.70;;;;;;5036979;28;20842;-67
2022/01/30 01:26:06;;;;;;;3.50;1.90;;;6.20;99.70;;;;;;5073570;28;20479;-66
2022/01/30 01:28:32;;;;;;;3.60;2.00;;;6.20;99.70;;;;;;5073150;28;20504;-67
2022/01/30 01:30:59;;;;;;;4.27;2.00;;;6.20;99.70;;;;;;5073404;28;20442;-67
2022/01/30 01:33:27;;;;;;;2.90;1.70;;;6.20;99.70;;;;;;5073480;28;20462;-67
2022/01/30 01:35:54;;;;;;;3.87;2.00;;;6.20;99.70;;;;;;5072408;28;20453;-67
2022/01/30 01:38:21;;;;;;;5.10;2.10;;;6.20;99.70;;;;;;5065362;28;20439;-67
2022/01/30 01:40:51;;;;;;;3.53;2.13;;;6.20;99.70;;;;;;5066642;28;20443;-67
2022/01/30 01:43:21;;;;;;;3.50;2.00;;;6.20;99.70;;;;;;5073055;28;20554;-67
2022/01/30 01:45:50;;;;;;;3.97;2.20;;;6.10;99.70;;;;;;5053124;28;20444;-67
2022/01/30 01:48:17;;;;;;;3.93;2.27;;;6.10;99.70;;;;;;5052885;28;20447;-67
2022/01/30 01:50:51;;;;;;;4.10;2.33;;;6.20;99.70;;;;;;5052907;28;20506;-64
2022/01/30 01:53:21;;;;;;;4.20;2.27;;;6.20;99.70;;;;;;5052997;28;21005;-64
2022/01/30 01:55:47;;;;;;;5.03;2.30;;;6.10;99.70;;;;;;5052934;28;20451;-64
2022/01/30 01:58:14;;;;;;;4.40;2.20;;;6.10;99.70;;;;;;5052592;28;20448;-65
2022/01/30 02:00:42;;;;;;;4.63;2.30;;;6.00;99.70;;;;;;5052878;28;20455;-65
2022/01/30 02:03:10;;;;;;;4.57;2.20;;;6.00;99.70;;;;;;5052849;28;20460;-65
2022/01/30 02:05:39;;;;;;;5.57;2.50;;;6.00;99.70;;;;;;5052744;28;20446;-64
2022/01/30 02:10:55;;;;;;;7.33;2.70;;;6.10;99.70;;;;;;5056614;28;20869;-67
2022/01/30 02:13:43;;;;;;;5.47;2.47;;;6.10;99.70;;;;;;5124846;22;20465;-65
2022/01/30 02:24:38;;;;;;;5.53;2.70;;;6.10;99.70;;;;;;5032001;28;20440;-64
2022/01/30 02:27:05;;;;;;;5.60;2.70;;;6.10;99.70;;;;;;5031980;28;20575;-65
2022/01/30 02:29:32;;;;;;;5.17;2.27;;;6.10;99.70;;;;;;5031308;28;20455;-65
2022/01/30 02:32:01;;;;;;;4.53;2.50;;;6.10;99.70;;;;;;5031758;28;20452;-65
2022/01/30 02:34:28;;;;;;;4.40;2.50;;;6.10;99.70;;;;;;5032002;28;20538;-64
2022/01/30 02:36:56;;;;;;;5.23;2.40;;;6.00;99.70;;;;;;5032081;28;20441;-65
2022/01/30 02:39:23;;;;;;;4.17;2.50;;;6.10;99.70;;;;;;5031573;28;20955;-64
2022/01/30 02:41:52;;;;;;;5.33;2.50;;;6.10;99.70;;;;;;5031492;28;20453;-64
2022/01/30 02:44:23;;;;;;;4.83;2.70;;;6.00;99.70;;;;;;5031844;28;20460;-65
2022/01/30 02:46:52;;;;;;;6.97;3.47;;;6.10;99.70;;;;;;5031625;28;20480;-64
2022/01/30 02:49:40;;;;;;;5.23;2.73;;;6.00;99.70;;;;;;5031174;28;20449;-65
2022/01/30 02:52:08;;;;;;;5.27;3.20;;;6.00;99.70;;;;;;5031506;28;20476;-65
2022/01/30 02:54:35;;;;;;;6.47;2.93;;;5.90;99.70;;;;;;5031702;28;20559;-64
2022/01/30 02:57:03;;;;;;;5.37;2.87;;;6.00;99.70;;;;;;5031474;28;20497;-66
2022/01/30 02:59:30;;;;;;;6.10;3.43;;;6.00;99.70;;;;;;5031146;28;20832;-65
2022/01/30 03:01:58;;;;;;;4.83;2.70;;;6.00;99.70;;;;;;5031362;28;20530;-65
2022/01/30 03:04:24;;;;;;;8.20;2.80;;;6.00;99.70;;;;;;5031316;28;20472;-64
2022/01/30 03:06:51;;;;;;;4.40;2.57;;;6.00;99.70;;;;;;5031297;28;21080;-65
2022/01/30 03:09:18;;;;;;;6.70;2.80;;;6.00;99.70;;;;;;5031020;28;20452;-65
2022/01/30 03:11:44;;;;;;;4.73;2.80;;;6.10;99.70;;;;;;5031365;28;20518;-65
2022/01/30 03:14:12;;;;;;;4.13;2.30;;;6.10;99.70;;;;;;5031095;28;20859;-64
2022/01/30 03:16:39;;;;;;;4.23;2.30;;;6.20;99.70;;;;;;5031326;28;20444;-63
2022/01/30 03:19:06;;;;;;;4.07;2.30;;;6.10;99.70;;;;;;5030713;28;20447;-65
2022/01/30 03:21:33;;;;;;;4.67;2.30;;;6.10;99.70;;;;;;5030744;28;20528;-65
2022/01/30 03:23:59;;;;;;;5.53;2.27;;;6.10;99.70;;;;;;5030627;28;20475;-65
2022/01/30 03:26:26;;;;;;;5.17;2.40;;;6.00;99.70;;;;;;5030653;28;20459;-66
2022/01/30 03:28:56;;;;;;;6.80;2.50;;;6.10;99.70;;;;;;5030829;28;20443;-65
2022/01/30 03:31:24;;;;;;;5.33;2.30;;;6.10;99.70;;;;;;5031143;28;20449;-65
2022/01/30 03:33:51;;;;;;;4.17;2.30;;;6.00;99.70;;;;;;5030799;28;20995;-64
2022/01/30 03:36:18;;;;;;;4.57;2.40;;;6.00;99.70;;;;;;5031049;28;20457;-64
2022/01/30 03:38:44;;;;;;;6.37;3.07;;;6.00;99.70;;;;;;5030738;28;20441;-64
2022/01/30 03:41:11;;;;;;;3.93;2.13;;;6.10;99.70;;;;;;5030571;28;20441;-65
2022/01/30 03:43:38;;;;;;;4.97;2.20;;;6.00;99.70;;;;;;5030862;28;20469;-65
2022/01/30 03:46:05;;;;;;;4.50;2.40;;;6.00;99.70;;;;;;5030839;28;20453;-64
2022/01/30 03:48:33;;;;;;;5.33;2.37;;;6.10;99.70;;;;;;5030315;28;20480;-64
2022/01/30 03:51:00;;;;;;;4.33;2.40;;;6.00;99.70;;;;;;5030837;28;20448;-64
2022/01/30 03:53:27;;;;;;;4.40;2.47;;;6.10;99.70;;;;;;5030694;28;20464;-64
2022/01/30 03:55:53;;;;;;;4.10;2.57;;;6.10;99.70;;;;;;5030683;28;20475;-63
2022/01/30 03:58:20;;;;;;;3.93;2.20;;;6.10;99.70;;;;;;5030401;28;20440;-65
2022/01/30 04:00:47;;;;;;;4.10;2.40;;;6.10;99.70;;;;;;5030827;28;20498;-65
2022/01/30 04:03:14;;;;;;;4.87;2.23;;;6.10;99.70;;;;;;5030558;28;20456;-64
2022/01/30 04:05:42;;;;;;;5.60;2.50;;;6.00;99.70;;;;;;5030626;28;20459;-64
2022/01/30 04:08:09;;;;;;;4.90;2.37;;;6.00;99.70;;;;;;5030290;28;20487;-64
2022/01/30 04:10:37;;;;;;;3.87;2.10;;;6.00;99.70;;;;;;5030537;28;20875;-64
2022/01/30 04:13:04;;;;;;;4.73;2.90;;;6.00;99.70;;;;;;5030800;28;20476;-64
2022/01/30 04:15:32;;;;;;;5.73;2.40;;;6.00;99.70;;;;;;5030415;28;20464;-64
2022/01/30 04:17:59;;;;;;;5.17;2.10;;;6.00;99.70;;;;;;5030243;28;20467;-64
2022/01/30 04:20:27;;;;;;;4.27;2.30;;;6.10;99.70;;;;;;5030427;28;20898;-65
2022/01/30 04:22:55;;;;;;;5.40;2.80;;;6.00;99.70;;;;;;5030422;28;20975;-65
2022/01/30 04:25:22;;;;;;;4.23;2.10;;;6.00;99.70;;;;;;5030292;28;20460;-65
2022/01/30 04:27:49;;;;;;;5.27;2.60;;;6.00;99.70;;;;;;5030055;28;20771;-65
2022/01/30 04:30:17;;;;;;;4.03;2.20;;;6.00;99.70;;;;;;5030205;28;21017;-65
2022/01/30 04:32:44;;;;;;;6.27;2.43;;;6.00;99.70;;;;;;5031273;28;20948;-65
2022/01/30 04:35:17;;;;;;;4.90;2.50;;;6.00;99.70;;;;;;5033979;28;20465;-65
2022/01/30 04:37:57;;;;;;;5.70;2.43;;;6.10;99.70;;;;;;5033996;28;20448;-65
2022/01/30 04:40:48;;;;;;;4.70;2.30;;;6.10;99.70;;;;;;5033507;28;20448;-65
2022/01/30 04:57:50;;;;;;;7.13;3.20;;;6.30;99.70;;;;;;4972726;28;20419;-67
2022/01/30 05:00:29;;;;;;;8.30;4.10;;;6.30;99.70;;;;;;5016187;28;21061;-65
2022/01/30 05:03:03;;;;;;;8.20;4.40;;;6.30;99.70;;;;;;5026497;28;20444;-65
2022/01/30 05:08:17;;;;;;;11.23;4.57;;;6.40;99.70;;;;;;5027600;28;20530;-65
2022/01/30 05:10:44;;;;;;;13.00;5.53;;;6.40;99.70;;;;;;5032744;28;20972;-64
2022/01/30 05:13:17;;;;;;;9.73;4.60;;;6.50;99.70;;;;;;5031659;28;20449;-65
2022/01/30 05:15:44;;;;;;;11.43;4.23;;;6.50;99.70;;;;;;5033553;28;20456;-64
2022/01/30 05:18:17;;;;;;;11.63;4.00;;;6.50;99.70;;;;;;5032996;28;20436;-64
2022/01/30 05:20:44;;;;;;;10.23;4.30;;;6.50;99.70;;;;;;5032731;28;20936;-65
2022/01/30 05:23:11;;;;;;;12.80;4.07;;;6.50;99.70;;;;;;5033174;28;20559;-65
2022/01/30 05:25:39;;;;;;;11.00;4.27;;;6.50;99.70;;;;;;5033096;28;20459;-64
2022/01/30 05:28:06;;;;;;;8.50;4.03;;;6.50;99.70;;;;;;5032760;28;20586;-64
2022/01/30 05:30:36;;;;;;;9.40;4.07;;;6.50;99.70;;;;;;5032932;28;20481;-63
2022/01/30 05:33:03;;;;;;;9.30;4.20;;;6.50;99.70;;;;;;5033177;28;20452;-65
2022/01/30 05:35:30;;;;;;;10.97;4.00;;;6.40;99.70;;;;;;5033029;28;20464;-66
2022/01/30 05:37:57;;;;;;;9.93;3.90;;;6.50;99.70;;;;;;5032716;28;20456;-65
2022/01/30 05:40:24;;;;;;;13.10;3.67;;;6.50;99.70;;;;;;5032659;28;20444;-65
2022/01/30 05:42:52;;;;;;;9.97;3.77;;;6.40;99.70;;;;;;5032970;28;20456;-65
2022/01/30 05:45:26;;;;;;;9.67;3.80;;;6.40;99.70;;;;;;5032602;28;20464;-65
2022/01/30 05:47:59;;;;;;;11.87;4.20;;;6.40;99.70;;;;;;5032261;28;20568;-65
2022/01/30 05:50:26;;;;;;;13.73;4.37;;;6.40;99.70;;;;;;5032653;28;20449;-65
2022/01/30 05:52:53;;;;;;;13.10;4.03;;;6.40;99.70;;;;;;5032620;28;20466;-65
2022/01/30 05:55:19;;;;;;;12.53;3.93;;;6.40;99.70;;;;;;5032655;28;20476;-65
2022/01/30 05:57:47;;;;;;;14.17;4.37;;;6.40;99.70;;;;;;5032232;28;20896;-64
2022/01/30 06:00:15;;;;;;;17.23;4.30;;;6.40;99.70;;;;;;5032534;28;20514;-65
2022/01/30 06:02:42;;;;;;;16.33;4.93;;;6.40;99.70;;;;;;5032551;28;20872;-65
2022/01/30 06:05:13;;;;;;;13.27;4.67;;;6.40;99.70;;;;;;5032476;28;20468;-64
2022/01/30 06:07:47;;;;;;;14.60;4.57;;;6.40;99.70;;;;;;5032193;28;20484;-63
2022/01/30 06:10:14;;;;;;;13.87;4.30;;;6.40;99.70;;;;;;5032586;28;20518;-65
2022/01/30 06:12:40;;;;;;;12.73;4.27;;;6.40;99.70;;;;;;5031738;28;20498;-65
2022/01/30 06:15:08;;;;;;;17.33;4.40;;;6.40;99.70;;;;;;5032158;28;21000;-66
2022/01/30 06:17:35;;;;;;;10.97;4.40;;;6.40;99.70;;;;;;5032118;28;20433;-65
2022/01/30 06:20:02;;;;;;;11.83;4.00;;;6.40;99.70;;;;;;5031839;28;20816;-65
2022/01/30 06:22:31;;;;;;;13.60;4.30;;;6.40;99.70;;;;;;5031998;28;20452;-65
2022/01/30 06:24:58;;;;;;;9.23;4.00;;;6.40;99.70;;;;;;5032207;28;20468;-65
2022/01/30 06:27:24;;;;;;;10.17;4.00;;;6.40;99.70;;;;;;5031999;28;20871;-65
2022/01/30 06:29:51;;;;;;;12.70;4.13;;;6.40;99.70;;;;;;5031633;28;20531;-66
2022/01/30 06:32:18;;;;;;;17.63;4.30;;;6.40;99.70;;;;;;5031861;28;20830;-66
2022/01/30 06:34:44;;;;;;;12.07;4.50;;;6.40;99.70;;;;;;5031912;28;20519;-66
2022/01/30 06:37:11;;;;;;;11.10;3.50;;;6.40;99.70;;;;;;5031893;28;20844;-65
2022/01/30 06:39:39;;;;;;;14.13;4.40;;;6.40;99.70;;;;;;5030974;28;20967;-65
2022/01/30 06:42:07;;;;;;;10.57;3.77;;;6.40;99.70;;;;;;5031690;28;20448;-65
2022/01/30 06:44:34;;;;;;;17.47;4.03;;;6.30;99.70;;;;;;5031607;28;20491;-66
2022/01/30 06:47:01;;;;;;;13.50;4.10;;;6.30;99.70;;;;;;5031736;28;20445;-65
2022/01/30 06:49:28;;;;;;;10.50;4.00;;;6.30;99.70;;;;;;5031325;28;20488;-64
2022/01/30 06:51:54;;;;;;;7.80;3.60;;;6.20;99.70;;;;;;5031566;28;20445;-65
2022/01/30 06:54:21;;;;;;;12.77;4.30;;;6.20;99.70;;;;;;5030990;28;20464;-65
2022/01/30 06:56:49;;;;;;;10.33;4.00;;;6.20;99.70;;;;;;5031055;28;20926;-65
2022/01/30 06:59:16;;;;;;;9.07;3.40;;;6.20;99.70;;;;;;5030922;28;20959;-65
2022/01/30 07:01:43;;;;;;;8.63;5.07;;;6.00;99.70;;;;;;5031403;28;20518;-65
2022/01/30 07:04:09;;;;;;;10.70;4.40;;;6.00;99.70;;;;;;5031359;28;20813;-66
2022/01/30 07:06:36;;;;;;;18.93;5.37;;;5.90;99.70;;;;;;5031282;28;20440;-64
2022/01/30 07:09:03;;;;;;;11.43;3.97;;;5.90;99.70;;;;;;5030709;28;20849;-65
2022/01/30 07:11:30;;;;;;;15.17;5.27;;;5.80;99.70;;;;;;5029719;28;20459;-65
2022/01/30 07:13:58;;;;;;;9.77;3.67;;;5.80;99.70;;;;;;5030537;28;20514;-64
2022/01/30 07:16:25;;;;;;;9.27;3.67;;;5.80;99.70;;;;;;5030959;28;20479;-65
2022/01/30 07:18:52;;;;;;;11.50;3.67;;;5.80;99.70;;;;;;5030534;28;20870;-65
2022/01/30 07:21:18;;;;;;;7.90;3.90;;;5.80;99.70;;;;;;5031003;28;20770;-64
2022/01/30 07:23:45;;;;;;;10.70;3.73;;;5.80;99.70;;;;;;5029577;28;20456;-65
2022/01/30 07:26:12;;;;;;;11.70;4.33;;;5.80;99.70;;;;;;5026530;28;20451;-65
2022/01/30 07:28:38;;;;;;;9.40;3.97;;;5.80;99.70;;;;;;5030358;28;20831;-64
2022/01/30 07:31:06;;;;;;;12.87;4.00;;;5.80;99.70;;;;;;5030851;28;20433;-65
2022/01/30 07:33:35;;;;;;;14.73;4.20;;;5.80;99.70;;;;;;5030748;28;20473;-64
2022/01/30 07:36:02;;;;;;;13.40;4.60;;;5.80;99.70;;;;;;5030281;28;21035;-65
2022/01/30 07:38:29;;;;;;;8.23;3.90;;;5.80;99.70;;;;;;5030305;28;20971;-64
2022/01/30 07:40:56;;;;;;;16.87;4.30;;;5.70;99.70;;;;;;5030406;28;20575;-64
2022/01/30 07:43:23;;;;;;;17.70;4.20;;;5.80;99.70;;;;;;5030672;28;20445;-65
2022/01/30 07:45:49;;;;;;;13.40;3.70;;;5.80;99.70;;;;;;5030915;28;20835;-65
2022/01/30 07:48:18;;;;;;;13.60;4.00;;;5.90;99.70;;;;;;5029010;28;20484;-65
2022/01/30 07:50:45;;;;;;;11.03;4.20;;;6.00;99.70;;;;;;5030719;28;20452;-64
2022/01/30 07:53:12;;;;;;;15.00;4.70;;;5.90;99.70;;;;;;5030760;28;20451;-64
2022/01/30 07:55:38;;;;;;;13.80;4.43;;;5.90;99.70;;;;;;5029538;28;20444;-65
2022/01/30 07:58:06;;;;;;;10.40;4.10;;;6.00;99.70;;;;;;5029548;28;20456;-64
2022/01/30 08:00:33;;;;;;;15.10;4.33;;;6.00;99.70;;;;;;5029874;28;20952;-65
2022/01/30 08:02:59;;;;;;;12.07;4.20;;;6.00;99.70;;;;;;5029635;28;20491;-64
2022/01/30 08:05:27;;;;;;;12.90;4.77;;;6.00;99.70;;;;;;5029385;28;20476;-64
2022/01/30 08:07:54;;;;;;;14.17;4.70;;;6.10;99.70;;;;;;5031529;28;20441;-64
2022/01/30 08:10:21;;;;;;;15.60;4.37;;;6.10;99.70;;;;;;5033509;28;20593;-64
2022/01/30 08:12:48;;;;;;;13.53;4.00;;;6.10;99.70;;;;;;5033990;28;20447;-64
2022/01/30 08:15:14;;;;;;;12.03;4.47;;;6.10;99.70;;;;;;5034404;28;20944;-65
2022/01/30 08:17:41;;;;;;;11.40;5.40;;;6.10;99.70;;;;;;5062589;22;20496;-66
2022/01/30 08:20:09;;;;;;;9.43;4.50;;;6.20;99.70;;;;;;5024918;28;20464;-67
2022/01/30 08:22:48;;;;;;;18.03;5.43;;;6.10;99.70;;;;;;5031425;28;20514;-64
2022/01/30 08:25:16;;;;;;;14.23;4.73;;;6.00;99.70;;;;;;5028723;28;20461;-66
2022/01/30 08:27:42;;;;;;;13.27;4.17;;;6.00;99.70;;;;;;5033333;28;22092;-64
2022/01/30 08:30:10;;;;;;;15.40;4.07;;;5.90;99.70;;;;;;5033470;28;20922;-66
2022/01/30 08:32:41;;;;;;;15.83;4.50;;;6.00;99.70;;;;;;5027847;28;20469;-66
2022/01/30 08:35:09;;;;;;;11.07;4.40;;;5.90;99.70;;;;;;5027825;28;20456;-67
2022/01/30 08:37:36;;;;;;;13.80;3.80;;;6.00;99.70;;;;;;5033845;28;20542;-66
2022/01/30 08:40:06;;;;;;;11.40;4.13;;;6.00;99.70;;;;;;5032762;28;20515;-66
2022/01/30 08:42:33;;;;;;;14.33;6.03;;;6.00;99.70;;;;;;5031740;28;20460;-66
2022/01/30 08:44:59;;;;;;;12.83;3.90;;;5.90;99.70;;;;;;5031182;28;20460;-67
2022/01/30 08:47:27;;;;;;;8.73;4.10;;;5.90;99.70;;;;;;5033802;28;20472;-66
2022/01/30 08:49:54;;;;;;;11.10;3.90;;;5.90;99.70;;;;;;5033144;28;20498;-65
2022/01/30 08:52:20;;;;;;;17.00;3.70;;;6.00;99.70;;;;;;5033814;28;20939;-66
2022/01/30 08:54:49;;;;;;;13.57;3.90;;;6.00;99.70;;;;;;5033614;28;20441;-66
2022/01/30 08:57:17;;;;;;;15.27;3.83;;;6.00;99.70;;;;;;5027961;28;20538;-66
2022/01/30 08:59:44;;;;;;;17.47;4.20;;;6.10;99.70;;;;;;5031808;28;20449;-66
2022/01/30 09:02:10;;;;;;;16.27;4.10;;;6.00;99.70;;;;;;5033471;28;20471;-66
2022/01/30 09:04:37;;;;;;;12.97;4.23;;;5.80;99.70;;;;;;5052764;28;20447;-66
2022/01/30 09:07:05;;;;;;;8.70;3.80;;;5.80;99.70;;;;;;5039404;28;20476;-65
2022/01/30 09:09:31;;;;;;;11.90;4.53;;;5.70;99.70;;;;;;5021599;28;20484;-65
2022/01/30 09:11:59;;;;;;;16.60;3.83;;;5.70;99.70;;;;;;5023909;28;20460;-66
2022/01/30 09:14:27;;;;;;;14.10;3.87;;;5.70;99.70;;;;;;5021149;28;20468;-66
2022/01/30 09:16:54;;;;;;;16.07;4.10;;;5.70;99.70;;;;;;5025390;28;20571;-67
2022/01/30 09:19:21;;;;;;;17.10;4.50;;;5.60;99.70;;;;;;5030797;28;20991;-66
2022/01/30 09:21:48;;;;;;;14.03;3.80;;;5.60;99.70;;;;;;5030964;28;20444;-66
2022/01/30 09:24:15;;;;;;;13.33;3.73;;;5.80;99.70;;;;;;5031099;28;20443;-66
2022/01/30 09:26:43;;;;;;;14.20;4.00;;;5.90;99.70;;;;;;5030197;28;20460;-65
2022/01/30 09:29:10;;;;;;;14.30;3.60;;;6.10;99.70;;;;;;5027323;28;20543;-63
2022/01/30 09:31:38;;;;;;;9.33;3.47;;;6.10;99.70;;;;;;5020142;28;20519;-67
2022/01/30 09:34:05;;;;;;;9.83;3.33;;;6.20;99.70;;;;;;5025593;28;20856;-64
2022/01/30 09:36:31;;;;;;;12.17;4.33;;;5.90;99.70;;;;;;5022632;28;20448;-65
2022/01/30 09:38:58;;;;;;;15.30;4.17;;;6.00;99.70;;;;;;5022744;28;21062;-68
2022/01/30 09:41:26;;;;;;;13.93;4.07;;;6.00;99.70;;;;;;5030406;28;20863;-65
2022/01/30 09:43:53;;;;;;;10.00;3.93;;;6.10;99.70;;;;;;5032094;28;20864;-65
2022/01/30 09:46:21;;;;;;;14.40;4.03;;;6.10;99.70;;;;;;5032471;28;20440;-65
2022/01/30 09:48:50;;;;;;;16.77;4.03;;;6.20;99.70;;;;;;5026646;28;20488;-65
2022/01/30 09:51:17;;;;;;;16.10;3.70;;;6.20;99.70;;;;;;5031992;28;20871;-65
2022/01/30 09:53:44;;;;;;;10.63;4.20;;;6.20;99.70;;;;;;5030437;28;20437;-65
2022/01/30 09:56:11;;;;;;;9.60;3.70;;;6.00;99.70;;;;;;5032188;28;20448;-65
2022/01/30 09:58:37;;;;;;;13.17;4.60;;;6.00;99.70;;;;;;5030938;28;22318;-65
2022/01/30 10:01:04;;;;;;;11.30;3.60;;;6.10;99.70;;;;;;5031936;28;20444;-65
2022/01/30 10:03:32;;;;;;;18.07;4.30;;;6.20;99.70;;;;;;5032720;28;20445;-65
2022/01/30 10:06:04;;;;;;;14.87;4.20;;;6.30;99.70;;;;;;5032296;28;20936;-65
2022/01/30 10:08:31;;;;;;;12.33;3.90;;;6.40;99.70;;;;;;5031591;28;20468;-65
2022/01/30 10:11:00;;;;;;;13.90;4.23;;;6.50;99.70;;;;;;5031767;28;21039;-65
2022/01/30 10:13:32;;;;;;;13.30;4.00;;;6.50;99.70;;;;;;5032652;28;20834;-66
2022/01/30 10:16:04;;;;;;;12.20;4.70;;;6.50;99.70;;;;;;5032755;28;20544;-65
2022/01/30 10:18:32;;;;;;;9.10;3.87;;;6.50;99.70;;;;;;5031665;28;21006;-65
2022/01/30 10:20:59;;;;;;;15.43;4.20;;;6.50;99.70;;;;;;5032173;28;20952;-65
2022/01/30 10:23:35;;;;;;;13.70;4.03;;;6.60;99.70;;;;;;5031825;28;20469;-65
2022/01/30 10:26:08;;;;;;;12.10;4.30;;;6.50;99.70;;;;;;5031878;28;20444;-65
2022/01/30 10:28:35;;;;;;;11.50;4.70;;;6.50;99.70;;;;;;5030844;28;20468;-65
2022/01/30 10:31:04;;;;;;;10.30;4.00;;;6.50;99.70;;;;;;5028142;28;20440;-65
2022/01/30 10:33:44;;;;;;;14.30;4.00;;;6.60;99.70;;;;;;5028544;28;20444;-66
2022/01/30 10:36:12;;;;;;;11.83;4.00;;;6.60;99.70;;;;;;5030162;28;20437;-65
2022/01/30 10:38:47;;;;;;;15.67;4.10;;;6.60;99.70;;;;;;5031123;28;20518;-65
2022/01/30 10:41:18;;;;;;;15.13;6.00;;;6.60;99.70;;;;;;5030626;28;20817;-65
2022/01/30 10:43:55;;;;;;;36.33;5.20;;;6.60;99.70;;;;;;5029545;28;20429;-65
2022/01/30 10:46:24;;;;;;;11.30;4.00;;;6.60;99.70;;;;;;5030721;28;20444;-65
2022/01/30 10:48:56;;;;;;;12.93;3.90;;;6.80;99.70;;;;;;5030218;28;20477;-65
2022/01/30 10:51:23;;;;;;;16.27;4.60;;;6.80;99.70;;;;;;5030783;28;20448;-65
2022/01/30 10:53:51;;;;;;;22.80;4.77;;;6.80;99.70;;;;;;5031824;28;20813;-65
2022/01/30 10:56:20;;;;;;;11.40;4.20;;;6.90;99.70;;;;;;5031709;28;20441;-65
2022/01/30 10:59:05;;;;;;;17.40;4.70;;;6.80;99.70;;;;;;5031564;28;20461;-65
2022/01/30 11:01:31;;;;;;;11.60;3.57;;;6.80;99.70;;;;;;5032056;28;20444;-65
2022/01/30 11:04:00;;;;;;;17.37;4.97;;;6.70;99.70;;;;;;5031594;28;20444;-65
2022/01/30 11:06:28;;;;;;;11.97;4.23;;;6.60;99.70;;;;;;5030998;28;20444;-64
2022/01/30 11:09:06;;;;;;;15.53;5.00;;;6.60;99.70;;;;;;5027998;28;20998;-65
2022/01/30 11:11:39;;;;;;;16.80;4.30;;;6.60;99.70;;;;;;5024509;28;21045;-62
2022/01/30 11:14:21;;;;;;;13.67;3.80;;;6.50;99.70;;;;;;5022554;28;20449;-63
2022/01/30 11:19:38;;;;;;;14.03;3.83;;;6.20;99.70;;;;;;5028660;28;20455;-65
2022/01/30 11:22:07;;;;;;;12.43;3.80;;;6.20;99.70;;;;;;5030175;28;20453;-64
2022/01/30 11:24:47;;;;;;;12.47;3.97;;;6.30;99.70;;;;;;5030034;28;20448;-65
2022/01/30 11:27:15;;;;;;;9.70;3.63;;;6.40;99.70;;;;;;5029352;28;20551;-65
2022/01/30 11:29:43;;;;;;;12.87;4.10;;;6.40;99.70;;;;;;5030245;28;20499;-65
2022/01/30 11:32:10;;;;;;;10.87;4.03;;;6.60;99.70;;;;;;5030616;28;20444;-66
2022/01/30 11:34:38;;;;;;;18.20;3.47;;;6.60;99.70;;;;;;5030917;28;20448;-66
2022/01/30 11:37:07;;;;;;;8.70;3.37;;;6.60;99.70;;;;;;5030108;28;20472;-66
2022/01/30 11:39:42;;;;;;;13.70;3.50;;;6.60;99.70;;;;;;5029669;28;20441;-67
2022/01/30 11:42:11;;;;;;;13.00;3.90;;;6.60;99.70;;;;;;5026462;28;20447;-66
2022/01/30 11:44:39;;;;;;;15.10;4.03;;;6.60;99.70;;;;;;5029166;28;20838;-66
2022/01/30 11:47:24;;;;;;;15.33;3.70;;;6.60;99.70;;;;;;5029910;28;20452;-66
2022/01/30 11:50:07;;;;;;;8.43;3.20;;;6.40;99.70;;;;;;5028921;28;21043;-67
2022/01/30 11:53:04;;;;;;;12.80;3.90;;;6.60;99.70;;;;;;5027108;28;20491;-65
2022/01/30 11:56:00;;;;;;;14.03;3.43;;;6.60;99.70;;;;;;5029609;28;20502;-66
2022/01/30 11:58:54;;;;;;;15.93;3.80;;;6.70;99.70;;;;;;5030371;28;20879;-66
2022/01/30 12:01:38;;;;;;;11.23;3.50;;;6.80;99.70;;;;;;5030665;28;20538;-66
2022/01/30 12:04:21;;;;;;;14.73;4.80;;;6.60;99.70;;;;;;5031007;28;20455;-66
2022/01/30 12:06:50;;;;;;;13.80;3.70;;;6.60;99.70;;;;;;5029061;28;20456;-66
2022/01/30 12:09:30;;;;;;;11.27;3.50;;;6.50;99.70;;;;;;5030073;28;21039;-66
2022/01/30 12:12:05;;;;;;;10.20;3.80;;;6.40;99.70;;;;;;5030939;28;20451;-66
2022/01/30 12:14:53;;;;;;;13.93;4.20;;;6.40;99.70;;;;;;5030596;28;20456;-66
2022/01/30 12:17:50;;;;;;;9.33;3.93;;;6.50;99.70;;;;;;5030382;28;20503;-66
2022/01/30 12:20:17;;;;;;;11.27;3.67;;;6.50;99.70;;;;;;5030647;28;20440;-66
2022/01/30 12:22:44;;;;;;;11.63;4.00;;;6.70;99.70;;;;;;5031155;28;20440;-66
2022/01/30 12:25:34;;;;;;;11.60;3.30;;;6.80;99.70;;;;;;5030684;28;20531;-66
2022/01/30 12:28:07;;;;;;;15.87;4.87;;;7.10;99.70;;;;;;5030469;28;20464;-65
2022/01/30 12:30:37;;;;;;;9.67;3.40;;;7.10;99.70;;;;;;5030554;28;20485;-66
2022/01/30 12:33:19;;;;;;;7.60;3.10;;;7.20;99.70;;;;;;5035246;28;20445;-66
2022/01/30 12:35:46;;;;;;;17.07;4.17;;;7.20;99.70;;;;;;5030571;28;20451;-66
2022/01/30 12:38:13;;;;;;;12.83;3.50;;;7.30;99.70;;;;;;5030140;28;20460;-66
2022/01/30 12:40:45;;;;;;;10.07;3.67;;;7.50;99.70;;;;;;5030571;28;20495;-67
2022/01/30 12:43:13;;;;;;;11.97;3.77;;;7.70;99.70;;;;;;5030140;28;20485;-66
2022/01/30 12:45:40;;;;;;;12.37;4.43;;;7.70;99.70;;;;;;5030943;28;20440;-66
2022/01/30 12:48:09;;;;;;;11.53;4.00;;;7.80;99.70;;;;;;5029971;28;21044;-65
2022/01/30 12:50:38;;;;;;;13.70;3.37;;;7.70;99.70;;;;;;5030221;28;20480;-67
2022/01/30 12:53:07;;;;;;;10.03;3.40;;;7.70;99.70;;;;;;5030568;28;20455;-66
2022/01/30 12:55:34;;;;;;;12.17;3.83;;;7.70;99.70;;;;;;5034269;28;20447;-66
2022/01/30 12:58:02;;;;;;;9.43;3.40;;;7.70;99.70;;;;;;5033549;28;20490;-66
2022/01/30 13:00:30;;;;;;;10.60;3.73;;;7.50;99.70;;;;;;5015456;28;20446;-66
2022/01/30 13:02:59;;;;;;;8.53;3.23;;;7.30;99.70;;;;;;5013922;28;20450;-66
2022/01/30 13:05:28;;;;;;;7.93;3.20;;;7.30;99.70;;;;;;5014262;28;20448;-67
2022/01/30 13:07:56;;;;;;;11.43;3.40;;;7.20;99.70;;;;;;5013613;28;20465;-66
2022/01/30 13:10:24;;;;;;;13.37;3.30;;;7.30;99.70;;;;;;5013492;28;20477;-66
2022/01/30 13:12:52;;;;;;;9.23;3.33;;;7.20;99.70;;;;;;5014022;28;20449;-66
2022/01/30 13:15:22;;;;;;;10.43;3.93;;;7.20;99.70;;;;;;5021736;28;20452;-67
2022/01/30 13:17:51;;;;;;;11.43;3.47;;;7.40;99.70;;;;;;5021200;28;20515;-66
2022/01/30 13:20:22;;;;;;;12.83;3.60;;;7.40;99.70;;;;;;5028622;28;20432;-65
2022/01/30 13:22:51;;;;;;;10.17;3.53;;;7.20;99.70;;;;;;5024185;28;20444;-66
2022/01/30 13:25:19;;;;;;;14.07;3.30;;;7.20;99.70;;;;;;5030960;28;20448;-66
2022/01/30 13:27:47;;;;;;;10.60;3.70;;;7.30;99.70;;;;;;5033283;28;20469;-64
2022/01/30 13:30:20;;;;;;;13.03;3.60;;;7.40;99.70;;;;;;5027731;28;20489;-66
2022/01/30 13:32:47;;;;;;;9.40;3.63;;;7.40;99.70;;;;;;5032826;28;20491;-66
2022/01/30 13:35:17;;;;;;;11.00;3.30;;;7.60;99.70;;;;;;5033082;28;20436;-66
2022/01/30 13:37:46;;;;;;;9.37;3.17;;;7.40;99.70;;;;;;5031407;28;20860;-66
2022/01/30 13:40:19;;;;;;;7.97;3.20;;;7.40;99.70;;;;;;5028383;28;20968;-65